createdAt,value
2023-02-19T00:01:48.776Z,16.38
2023-02-19T00:04:24.278Z,18.85
2023-02-19T00:06:51.806Z,17.40
2023-02-19T00:09:20.068Z,17.40
2023-02-19T00:11:48.360Z,18.85
2023-02-19T00:14:20.672Z,13.05
2023-02-19T00:16:48.388Z,19.77
2023-02-19T00:19:19.984Z,17.90
2023-02-19T00:21:48.524Z,14.65
2023-02-19T00:26:45.440Z,25.13
2023-02-19T00:29:19.879Z,19.90
2023-02-19T00:31:48.858Z,14.18
2023-02-19T00:34:16.778Z,10.10
2023-02-19T00:36:44.785Z,12.23
2023-02-19T00:39:18.288Z,10.63
2023-02-19T00:41:46.552Z,14.32
2023-02-19T00:46:47.448Z,11.45
2023-02-19T00:49:23.271Z,9.82
2023-02-19T00:51:53.218Z,9.48
2023-02-19T00:54:22.658Z,10.15
2023-02-19T00:56:51.382Z,20.73
2023-02-19T00:59:19.159Z,36.72
2023-02-19T01:01:46.694Z,14.60
2023-02-19T01:04:14.952Z,12.63
2023-02-19T01:06:42.435Z,16.23
2023-02-19T01:09:10.067Z,18.75
2023-02-19T01:11:37.433Z,15.98
2023-02-19T01:14:05.626Z,12.30
2023-02-19T01:16:33.033Z,10.18
2023-02-19T01:19:00.635Z,9.82
2023-02-19T01:21:30.156Z,9.23
2023-02-19T01:23:58.318Z,9.05
2023-02-19T01:26:32.366Z,18.55
2023-02-19T01:29:01.524Z,25.83
2023-02-19T01:31:30.076Z,22.55
2023-02-19T01:34:04.253Z,21.73
2023-02-19T01:36:34.046Z,17.88
2023-02-19T01:39:05.110Z,16.58
2023-02-19T01:41:37.956Z,12.27
2023-02-19T01:44:28.061Z,9.32
2023-02-19T01:46:57.661Z,8.73
2023-02-19T01:49:31.786Z,9.88
2023-02-19T01:52:01.538Z,9.40
2023-02-19T01:54:33.652Z,7.38
2023-02-19T01:57:06.750Z,6.38
2023-02-19T01:59:34.931Z,17.95
2023-02-19T02:02:02.646Z,44.10
2023-02-19T02:04:34.118Z,29.50
2023-02-19T02:07:24.502Z,24.33
2023-02-19T02:10:12.686Z,23.75
2023-02-19T02:12:40.053Z,21.00
2023-02-19T02:15:08.388Z,19.60
2023-02-19T02:17:56.601Z,13.35
2023-02-19T02:20:44.999Z,13.38
2023-02-19T02:24:08.736Z,11.20
2023-02-19T02:27:22.317Z,10.43
2023-02-19T02:30:31.718Z,8.88
2023-02-19T02:33:26.566Z,7.82
2023-02-19T02:36:05.928Z,9.63
2023-02-19T02:38:39.508Z,10.10
2023-02-19T02:41:07.384Z,8.85
2023-02-19T02:43:35.084Z,8.00
2023-02-19T02:46:04.592Z,7.60
2023-02-19T02:48:36.773Z,6.85
2023-02-19T02:51:13.394Z,7.85
2023-02-19T02:54:35.238Z,8.25
2023-02-19T02:57:09.672Z,11.25
2023-02-19T02:59:44.632Z,9.55
2023-02-19T03:02:23.821Z,10.77
2023-02-19T03:05:22.084Z,18.70
2023-02-19T03:08:05.176Z,12.52
2023-02-19T03:10:46.801Z,9.40
2023-02-19T03:13:54.919Z,8.32
2023-02-19T03:16:52.716Z,10.63
2023-02-19T03:19:25.028Z,8.63
2023-02-19T03:22:10.825Z,8.98
2023-02-19T03:25:22.905Z,9.32
2023-02-19T03:27:53.834Z,9.43
2023-02-19T03:30:28.392Z,9.65
2023-02-19T03:33:08.131Z,8.20
2023-02-19T03:35:46.406Z,8.30
2023-02-19T03:41:18.219Z,7.55
2023-02-19T03:44:36.428Z,8.68
2023-02-19T03:47:27.517Z,8.35
2023-02-19T03:50:17.383Z,8.52
2023-02-19T03:52:56.899Z,8.90
2023-02-19T03:55:49.794Z,8.48
2023-02-19T03:58:34.190Z,7.45
2023-02-19T04:01:54.074Z,7.82
2023-02-19T04:04:38.143Z,7.13
2023-02-19T04:07:06.226Z,6.88
2023-02-19T04:09:41.638Z,7.13
2023-02-19T04:12:15.653Z,7.00
2023-02-19T04:14:53.658Z,7.47
2023-02-19T04:17:37.440Z,6.88
2023-02-19T04:20:11.206Z,6.82
2023-02-19T04:22:40.691Z,7.60
2023-02-19T04:25:09.301Z,6.88
2023-02-19T04:27:40.846Z,7.38
2023-02-19T04:30:11.468Z,6.75
2023-02-19T04:32:38.831Z,7.20
2023-02-19T04:35:06.873Z,6.82
2023-02-19T04:37:34.360Z,6.97
2023-02-19T04:40:01.764Z,6.82
2023-02-19T04:42:29.904Z,7.22
2023-02-19T04:44:57.233Z,7.20
2023-02-19T04:47:25.056Z,6.88
2023-02-19T04:49:52.481Z,6.90
2023-02-19T04:52:19.825Z,6.60
2023-02-19T04:54:47.165Z,5.78
2023-02-19T04:57:14.967Z,5.60
2023-02-19T04:59:42.367Z,5.43
2023-02-19T05:02:09.692Z,5.97
2023-02-19T05:04:37.086Z,6.30
2023-02-19T05:07:04.437Z,5.82
2023-02-19T05:09:32.063Z,5.60
2023-02-19T05:11:59.375Z,5.68
2023-02-19T05:14:26.676Z,5.60
2023-02-19T05:16:54.095Z,5.35
2023-02-19T05:19:21.482Z,5.20
2023-02-19T05:21:48.902Z,5.43
2023-02-19T05:24:16.238Z,5.93
2023-02-19T05:26:45.410Z,6.35
2023-02-19T05:29:12.919Z,6.50
2023-02-19T05:31:40.446Z,6.38
2023-02-19T05:34:07.894Z,6.15
2023-02-19T05:36:37.117Z,6.72
2023-02-19T05:39:06.247Z,6.13
2023-02-19T05:41:33.652Z,6.40
2023-02-19T05:44:00.980Z,6.30
2023-02-19T05:46:30.159Z,5.72
2023-02-19T05:48:58.409Z,5.65
2023-02-19T05:51:27.622Z,6.30
2023-02-19T05:53:56.989Z,5.40
2023-02-19T05:56:49.879Z,5.32
2023-02-19T05:59:24.498Z,5.60
2023-02-19T06:01:54.366Z,6.60
2023-02-19T06:04:22.326Z,6.90
2023-02-19T06:06:50.036Z,7.25
2023-02-19T06:09:17.945Z,9.02
2023-02-19T06:11:45.464Z,7.47
2023-02-19T06:14:14.462Z,7.28
2023-02-19T06:16:42.223Z,6.95
2023-02-19T06:19:09.762Z,8.27
2023-02-19T06:21:37.332Z,7.87
2023-02-19T06:24:07.511Z,7.50
2023-02-19T06:26:35.406Z,7.18
2023-02-19T06:29:03.328Z,6.40
2023-02-19T06:31:30.991Z,6.18
2023-02-19T06:33:58.617Z,7.80
2023-02-19T06:36:26.088Z,7.40
2023-02-19T06:38:53.488Z,6.57
2023-02-19T06:41:20.816Z,6.07
2023-02-19T06:43:48.602Z,6.70
2023-02-19T06:46:16.353Z,7.68
2023-02-19T06:48:45.444Z,10.20
2023-02-19T06:51:16.071Z,8.35
2023-02-19T06:53:43.406Z,7.07
2023-02-19T06:56:31.530Z,8.60
2023-02-19T06:59:02.755Z,7.88
2023-02-19T07:01:33.269Z,7.05
2023-02-19T07:04:00.898Z,7.20
2023-02-19T07:06:28.736Z,8.50
2023-02-19T07:08:58.017Z,9.68
2023-02-19T07:11:26.116Z,8.90
2023-02-19T07:13:58.849Z,59.40
2023-02-19T07:16:27.437Z,70.20
2023-02-19T07:19:00.217Z,34.10
2023-02-19T07:21:28.684Z,36.55
2023-02-19T07:26:24.647Z,54.58
2023-02-19T07:28:52.567Z,59.20
2023-02-19T07:31:23.077Z,67.60
2023-02-19T07:33:51.038Z,71.55
2023-02-19T07:36:20.119Z,79.60
2023-02-19T07:38:47.694Z,78.15
2023-02-19T07:41:15.102Z,81.75
2023-02-19T07:43:42.494Z,78.20
2023-02-19T07:46:13.234Z,72.65
2023-02-19T07:48:42.879Z,77.78
2023-02-19T07:51:18.925Z,77.38
2023-02-19T07:53:50.404Z,83.05
2023-02-19T07:56:19.920Z,73.00
2023-02-19T07:58:47.362Z,71.90
2023-02-19T08:01:48.966Z,66.63
2023-02-19T08:04:16.580Z,65.40
2023-02-19T08:06:43.941Z,60.30
2023-02-19T08:09:11.732Z,27.27
2023-02-19T08:11:57.590Z,14.70
2023-02-19T08:14:29.235Z,13.07
2023-02-19T08:16:56.855Z,9.57
2023-02-19T08:19:24.929Z,16.95
2023-02-19T08:24:20.697Z,89.43
2023-02-19T08:26:48.160Z,91.32
2023-02-19T08:29:15.545Z,86.40
2023-02-19T08:31:43.218Z,75.38
2023-02-19T08:34:10.921Z,75.53
2023-02-19T08:36:38.764Z,69.30
2023-02-19T08:39:06.321Z,67.13
2023-02-19T08:41:33.629Z,63.97
2023-02-19T08:44:00.976Z,59.60
2023-02-19T08:46:28.342Z,51.55
2023-02-19T08:48:55.685Z,57.13
2023-02-19T08:51:23.061Z,49.20
2023-02-19T08:53:50.417Z,51.05
2023-02-19T08:56:17.970Z,52.70
2023-02-19T08:58:45.959Z,75.22
2023-02-19T09:03:44.335Z,76.95
2023-02-19T09:08:47.734Z,67.95
2023-02-19T09:11:15.676Z,62.80
2023-02-19T09:16:11.885Z,36.78
2023-02-19T09:18:39.477Z,39.55
2023-02-19T09:21:07.343Z,39.17
2023-02-19T09:26:08.566Z,33.10
2023-02-19T09:28:36.460Z,22.48
2023-02-19T09:33:45.447Z,23.63
2023-02-19T09:36:15.017Z,18.88
2023-02-19T09:38:43.008Z,21.00
2023-02-19T09:43:46.566Z,17.80
2023-02-19T09:46:28.390Z,14.10
2023-02-19T09:49:08.055Z,13.40
2023-02-19T09:51:40.732Z,12.23
2023-02-19T09:54:27.352Z,13.85
2023-02-19T09:56:57.572Z,11.23
2023-02-19T09:59:31.813Z,9.43
2023-02-19T10:02:16.632Z,8.18
2023-02-19T10:04:46.549Z,9.60
2023-02-19T10:07:33.227Z,5.93
2023-02-19T10:10:15.501Z,7.00
2023-02-19T10:12:55.867Z,6.97
2023-02-19T10:15:41.268Z,8.15
2023-02-19T10:18:11.105Z,6.68
2023-02-19T10:20:39.795Z,5.10
2023-02-19T10:23:12.551Z,6.38
2023-02-19T10:25:58.825Z,5.20
2023-02-19T10:28:33.744Z,5.55
2023-02-19T10:31:07.196Z,5.47
2023-02-19T10:33:56.427Z,5.20
2023-02-19T10:36:34.997Z,5.63
2023-02-19T10:39:23.350Z,5.65
2023-02-19T10:41:54.517Z,4.85
2023-02-19T10:44:28.278Z,5.35
2023-02-19T10:47:00.565Z,7.28
2023-02-19T10:49:44.068Z,6.30
2023-02-19T10:52:27.515Z,5.05
2023-02-19T10:55:25.806Z,5.47
2023-02-19T10:57:53.198Z,5.53
2023-02-19T11:00:30.390Z,6.57
2023-02-19T11:03:27.108Z,5.85
2023-02-19T11:06:03.112Z,6.05
2023-02-19T11:08:47.674Z,5.78
2023-02-19T11:11:35.964Z,5.90
2023-02-19T11:14:18.381Z,6.95
2023-02-19T11:16:52.132Z,6.78
2023-02-19T11:19:41.020Z,6.78
2023-02-19T11:22:37.456Z,6.50
2023-02-19T11:25:20.928Z,6.63
2023-02-19T11:28:08.476Z,7.57
2023-02-19T11:30:45.711Z,7.30
2023-02-19T11:33:24.811Z,6.85
2023-02-19T11:36:19.145Z,6.80
2023-02-19T11:38:46.799Z,6.70
2023-02-19T11:41:45.371Z,6.38
2023-02-19T11:44:30.250Z,6.60
2023-02-19T11:47:35.465Z,6.43
2023-02-19T11:50:29.366Z,7.03
2023-02-19T11:53:24.967Z,6.65
2023-02-19T11:56:20.868Z,6.60
2023-02-19T11:59:03.091Z,6.20
2023-02-19T12:02:03.620Z,6.78
2023-02-19T12:05:02.253Z,7.13
2023-02-19T12:08:19.760Z,6.93
2023-02-19T12:14:16.120Z,7.63
2023-02-19T12:20:22.049Z,6.20
2023-02-19T12:23:08.665Z,6.93
2023-02-19T12:25:56.124Z,7.50
2023-02-19T12:28:41.397Z,7.32
2023-02-19T12:31:42.166Z,8.27
2023-02-19T12:34:38.786Z,8.48
2023-02-19T12:37:39.354Z,7.65
2023-02-19T12:41:11.801Z,6.82
2023-02-19T12:43:51.211Z,11.40
2023-02-19T12:46:33.271Z,7.53
2023-02-19T12:49:35.752Z,7.38
2023-02-19T12:52:15.813Z,6.97
2023-02-19T12:54:50.805Z,8.57
2023-02-19T12:57:24.805Z,8.38
2023-02-19T13:00:30.973Z,6.93
2023-02-19T13:03:22.201Z,6.10
2023-02-19T13:06:15.513Z,6.28
2023-02-19T13:09:06.006Z,5.82
2023-02-19T13:11:42.540Z,5.90
2023-02-19T13:14:26.920Z,5.70
2023-02-19T13:17:19.707Z,8.25
2023-02-19T13:19:51.892Z,8.23
2023-02-19T13:23:04.502Z,6.20
2023-02-19T13:26:29.516Z,7.22
2023-02-19T13:29:37.003Z,6.13
2023-02-19T13:32:28.619Z,6.57
2023-02-19T13:34:55.913Z,6.55
2023-02-19T13:37:24.935Z,6.57
2023-02-19T13:40:04.637Z,6.32
2023-02-19T13:42:36.746Z,6.15
2023-02-19T13:45:06.699Z,6.40
2023-02-19T13:47:55.253Z,6.57
2023-02-19T13:50:33.012Z,5.75
2023-02-19T13:53:22.316Z,6.32
2023-02-19T13:55:52.970Z,8.68
2023-02-19T13:59:05.165Z,7.80
2023-02-19T14:01:58.290Z,8.07
2023-02-19T14:04:42.921Z,8.25
2023-02-19T14:07:10.215Z,7.55
2023-02-19T14:09:37.699Z,7.27
2023-02-19T14:12:09.566Z,9.63
2023-02-19T14:14:46.851Z,7.40
2023-02-19T14:17:33.381Z,7.20
2023-02-19T14:20:16.893Z,6.90
2023-02-19T14:22:50.734Z,7.38
2023-02-19T14:25:45.977Z,7.40
2023-02-19T14:28:36.521Z,7.13
2023-02-19T14:31:37.592Z,8.20
2023-02-19T14:34:19.503Z,7.22
2023-02-19T14:37:21.044Z,7.50
2023-02-19T14:39:52.154Z,9.73
2023-02-19T14:42:33.537Z,9.98
2023-02-19T14:45:06.843Z,16.63
2023-02-19T14:47:37.410Z,11.88
2023-02-19T14:50:17.553Z,10.68
2023-02-19T14:52:49.651Z,11.10
2023-02-19T14:55:42.816Z,12.00
2023-02-19T14:58:23.944Z,15.25
2023-02-19T15:00:51.610Z,11.48
2023-02-19T15:03:36.991Z,8.73
2023-02-19T15:06:18.616Z,8.20
2023-02-19T15:08:51.975Z,8.13
2023-02-19T15:11:23.515Z,9.70
2023-02-19T15:13:57.209Z,9.65
2023-02-19T15:16:26.873Z,9.82
2023-02-19T15:18:57.484Z,14.20
2023-02-19T15:21:29.700Z,12.95
2023-02-19T15:24:02.863Z,14.20
2023-02-19T15:26:43.017Z,14.80
2023-02-19T15:29:16.950Z,16.10
2023-02-19T15:32:00.148Z,21.95
2023-02-19T15:34:31.698Z,30.85
2023-02-19T15:37:04.671Z,41.08
2023-02-19T15:39:41.578Z,68.80
2023-02-19T15:42:15.974Z,44.28
2023-02-19T15:45:03.949Z,34.88
2023-02-19T15:47:42.938Z,33.67
2023-02-19T15:50:18.859Z,36.30
2023-02-19T15:52:59.612Z,42.13
2023-02-19T15:55:39.360Z,46.50
2023-02-19T15:58:42.648Z,49.20
2023-02-19T16:01:15.250Z,44.60
2023-02-19T16:03:43.146Z,36.10
2023-02-19T16:06:18.590Z,34.30
2023-02-19T16:09:01.859Z,33.08
2023-02-19T16:11:40.032Z,47.97
2023-02-19T16:14:26.734Z,118.43
2023-02-19T16:17:07.425Z,86.13
2023-02-19T16:19:42.800Z,87.53
2023-02-19T16:22:19.797Z,69.30
2023-02-19T16:25:03.098Z,128.30
2023-02-19T16:27:35.005Z,69.30
2023-02-19T16:30:18.621Z,104.45
2023-02-19T16:32:46.913Z,34.38
2023-02-19T16:35:37.668Z,41.22
2023-02-19T16:38:14.984Z,28.10
2023-02-19T16:40:48.405Z,39.90
2023-02-19T16:43:15.960Z,37.30
2023-02-19T16:45:45.242Z,27.60
2023-02-19T16:48:13.908Z,16.67
2023-02-19T16:50:42.181Z,14.98
2023-02-19T16:55:52.425Z,12.13
2023-02-19T16:58:19.976Z,12.13
2023-02-19T17:00:47.706Z,15.67
2023-02-19T17:03:21.169Z,22.23
2023-02-19T17:05:48.840Z,14.80
2023-02-19T17:08:34.103Z,20.13
2023-02-19T17:11:05.762Z,32.03
2023-02-19T17:13:33.546Z,27.67
2023-02-19T17:16:01.417Z,33.17
2023-02-19T17:18:28.965Z,31.98
2023-02-19T17:21:30.319Z,48.22
2023-02-19T17:23:57.726Z,53.05
2023-02-19T17:26:29.457Z,62.53
2023-02-19T17:28:58.211Z,55.67
2023-02-19T17:31:25.839Z,56.78
2023-02-19T17:33:53.680Z,72.75
2023-02-19T17:36:30.105Z,73.65
2023-02-19T17:39:02.922Z,65.38
2023-02-19T17:41:30.642Z,55.17
2023-02-19T17:43:58.109Z,45.70
2023-02-19T17:46:27.464Z,33.20
2023-02-19T17:48:55.515Z,27.52
2023-02-19T17:51:23.408Z,24.08
2023-02-19T17:53:50.761Z,24.05
2023-02-19T17:56:22.315Z,25.30
2023-02-19T17:58:49.959Z,19.77
2023-02-19T18:01:17.719Z,18.73
2023-02-19T18:03:45.110Z,21.88
2023-02-19T18:06:13.592Z,20.77
2023-02-19T18:11:19.180Z,21.55
2023-02-19T18:13:48.114Z,22.42
2023-02-19T18:16:16.158Z,24.63
2023-02-19T18:18:45.376Z,26.55
2023-02-19T18:21:13.844Z,26.92
2023-02-19T18:23:41.852Z,30.27
2023-02-19T18:26:11.205Z,26.38
2023-02-19T18:28:39.182Z,24.75
2023-02-19T18:31:06.935Z,20.83
2023-02-19T18:33:35.315Z,20.55
2023-02-19T18:36:04.142Z,24.70
2023-02-19T18:38:31.692Z,24.25
2023-02-19T18:40:59.043Z,24.55
2023-02-19T18:43:26.438Z,22.83
2023-02-19T18:45:54.052Z,22.00
2023-02-19T18:48:21.577Z,21.08
2023-02-19T18:50:48.957Z,20.30
2023-02-19T18:53:16.255Z,17.17
2023-02-19T18:55:43.840Z,15.82
2023-02-19T18:58:11.349Z,17.87
2023-02-19T19:00:38.730Z,19.07
2023-02-19T19:03:06.534Z,14.30
2023-02-19T19:05:33.894Z,15.10
2023-02-19T19:08:01.913Z,14.55
2023-02-19T19:10:30.700Z,13.77
2023-02-19T19:12:58.714Z,13.40
2023-02-19T19:15:26.950Z,11.25
2023-02-19T19:17:54.487Z,15.70
2023-02-19T19:20:23.465Z,22.10
2023-02-19T19:22:53.026Z,18.05
2023-02-19T19:25:23.080Z,13.05
2023-02-19T19:27:55.305Z,13.95
2023-02-19T19:30:23.180Z,15.05
2023-02-19T19:32:52.543Z,15.95
2023-02-19T19:35:21.211Z,17.98
2023-02-19T19:37:49.320Z,17.50
2023-02-19T19:40:18.232Z,16.25
2023-02-19T19:42:46.289Z,15.43
2023-02-19T19:45:14.550Z,14.95
2023-02-19T19:47:42.125Z,14.75
2023-02-19T19:50:10.351Z,11.93
2023-02-19T19:52:37.683Z,11.65
2023-02-19T19:55:06.495Z,11.88
2023-02-19T19:57:33.966Z,12.43
2023-02-19T20:00:01.656Z,15.20
2023-02-19T20:02:29.115Z,13.15
2023-02-19T20:04:56.454Z,10.05
2023-02-19T20:07:23.864Z,11.55
2023-02-19T20:09:51.266Z,12.05
2023-02-19T20:12:18.672Z,13.73
2023-02-19T20:14:46.900Z,14.00
2023-02-19T20:17:15.196Z,13.30
2023-02-19T20:19:42.912Z,13.70
2023-02-19T20:22:10.415Z,15.05
2023-02-19T20:24:38.565Z,12.43
2023-02-19T20:27:05.926Z,15.02
2023-02-19T20:29:34.827Z,11.20
2023-02-19T20:32:03.760Z,15.32
2023-02-19T20:34:31.977Z,15.60
2023-02-19T20:36:59.843Z,13.25
2023-02-19T20:39:29.323Z,11.93
2023-02-19T20:41:59.142Z,10.30
2023-02-19T20:44:29.029Z,10.98
2023-02-19T20:46:58.889Z,12.50
2023-02-19T20:49:31.538Z,16.33
2023-02-19T20:52:07.512Z,15.85
2023-02-19T20:54:36.011Z,15.55
2023-02-19T20:57:05.712Z,16.65
2023-02-19T20:59:38.637Z,15.95
2023-02-19T21:02:14.627Z,13.20
2023-02-19T21:04:42.133Z,12.45
2023-02-19T21:07:09.572Z,14.25
2023-02-19T21:09:36.954Z,14.20
2023-02-19T21:12:08.233Z,12.60
2023-02-19T21:14:35.852Z,11.88
2023-02-19T21:17:03.697Z,11.25
2023-02-19T21:19:31.038Z,10.80
2023-02-19T21:21:58.595Z,12.35
2023-02-19T21:24:26.233Z,12.80
2023-02-19T21:26:53.593Z,11.52
2023-02-19T21:29:22.714Z,12.05
2023-02-19T21:31:56.569Z,10.50
2023-02-19T21:34:29.953Z,11.55
2023-02-19T21:36:57.479Z,13.20
2023-02-19T21:39:27.357Z,12.23
2023-02-19T21:41:54.875Z,10.90
2023-02-19T21:44:22.296Z,9.77
2023-02-19T21:46:49.859Z,12.55
2023-02-19T21:49:17.719Z,14.30
2023-02-19T21:51:48.619Z,14.55
2023-02-19T21:54:21.710Z,15.38
2023-02-19T21:56:49.163Z,14.95
2023-02-19T21:59:16.501Z,12.30
2023-02-19T22:01:44.493Z,12.00
2023-02-19T22:04:18.797Z,13.43
2023-02-19T22:06:46.417Z,12.95
2023-02-19T22:09:14.998Z,12.43
2023-02-19T22:14:09.643Z,10.18
2023-02-19T22:16:37.094Z,8.82
2023-02-19T22:19:04.786Z,9.67
2023-02-19T22:21:32.889Z,12.10
2023-02-19T22:24:02.832Z,11.07
2023-02-19T22:26:34.447Z,12.10
2023-02-19T22:29:07.158Z,10.82
2023-02-19T22:31:35.753Z,9.32
2023-02-19T22:36:34.095Z,9.98
2023-02-19T22:39:01.952Z,10.10
2023-02-19T22:41:29.760Z,8.85
2023-02-19T22:43:58.523Z,8.75
2023-02-19T22:46:31.147Z,9.38
2023-02-19T22:49:03.680Z,10.20
2023-02-19T22:51:32.546Z,7.97
2023-02-19T22:54:00.073Z,8.23
2023-02-19T22:56:28.652Z,8.57
2023-02-19T22:58:57.938Z,8.68
2023-02-19T23:01:25.655Z,8.40
2023-02-19T23:03:59.154Z,7.80
2023-02-19T23:06:30.765Z,8.43
2023-02-19T23:09:10.642Z,9.23
2023-02-19T23:11:39.484Z,10.07
2023-02-19T23:16:38.066Z,9.23
2023-02-19T23:19:11.304Z,9.15
2023-02-19T23:21:42.287Z,10.85
2023-02-19T23:24:11.087Z,27.13
2023-02-19T23:26:52.666Z,36.60
2023-02-19T23:29:26.696Z,33.45
2023-02-19T23:31:55.015Z,25.17
2023-02-19T23:34:24.338Z,22.02
2023-02-19T23:36:51.723Z,18.55
2023-02-19T23:39:22.024Z,18.35
2023-02-19T23:41:56.310Z,19.95
2023-02-19T23:44:25.498Z,32.40
2023-02-19T23:46:53.025Z,30.08
2023-02-19T23:49:21.570Z,18.38
2023-02-19T23:51:49.068Z,16.77
2023-02-19T23:54:16.574Z,17.52
2023-02-19T23:56:44.046Z,22.10
2023-02-19T23:59:12.612Z,20.77
